sensor_id;sensor_type;location;lat;lon;timestamp;pressure;altitude;pressure_sealevel;temperature;humidity
37634;BME280;32048;49.902;22.508;2023-01-28T00:00:53;99090.34;;;-1.75;100.00
37634;BME280;32048;49.902;22.508;2023-01-28T00:03:25;99083.41;;;-1.77;100.00
37634;BME280;32048;49.902;22.508;2023-01-28T00:06:01;99092.94;;;-1.75;100.00
37634;BME280;32048;49.902;22.508;2023-01-28T00:08:29;99092.94;;;-1.76;100.00
37634;BME280;32048;49.902;22.508;2023-01-28T00:11:00;99092.94;;;-1.76;100.00
37634;BME280;32048;49.902;22.508;2023-01-28T00:13:28;99084.31;;;-1.77;100.00
37634;BME280;32048;49.902;22.508;2023-01-28T00:15:56;99086.00;;;-1.77;100.00
37634;BME280;32048;49.902;22.508;2023-01-28T00:18:26;99095.50;;;-1.76;100.00
37634;BME280;32048;49.902;22.508;2023-01-28T00:21:00;99093.78;;;-1.76;100.00
37634;BME280;32048;49.902;22.508;2023-01-28T00:23:29;99095.53;;;-1.75;100.00
37634;BME280;32048;49.902;22.508;2023-01-28T00:25:58;99097.22;;;-1.75;100.00
37634;BME280;32048;49.902;22.508;2023-01-28T00:28:25;99091.22;;;-1.74;100.00
37634;BME280;32048;49.902;22.508;2023-01-28T00:30:52;99093.81;;;-1.74;100.00
37634;BME280;32048;49.902;22.508;2023-01-28T00:33:19;99092.06;;;-1.75;100.00
37634;BME280;32048;49.902;22.508;2023-01-28T00:35:46;99095.50;;;-1.73;100.00
37634;BME280;32048;49.902;22.508;2023-01-28T00:38:13;99096.38;;;-1.74;100.00
37634;BME280;32048;49.902;22.508;2023-01-28T00:40:40;99090.34;;;-1.76;100.00
37634;BME280;32048;49.902;22.508;2023-01-28T00:43:07;99087.75;;;-1.76;100.00
37634;BME280;32048;49.902;22.508;2023-01-28T00:45:34;99092.06;;;-1.77;100.00
37634;BME280;32048;49.902;22.508;2023-01-28T00:48:02;99089.47;;;-1.77;100.00
37634;BME280;32048;49.902;22.508;2023-01-28T00:50:30;99088.59;;;-1.77;100.00
37634;BME280;32048;49.902;22.508;2023-01-28T00:52:57;99092.06;;;-1.78;100.00
37634;BME280;32048;49.902;22.508;2023-01-28T00:55:24;99100.69;;;-1.76;100.00
37634;BME280;32048;49.902;22.508;2023-01-28T00:57:51;99100.69;;;-1.76;100.00
37634;BME280;32048;49.902;22.508;2023-01-28T01:00:18;99097.25;;;-1.77;100.00
37634;BME280;32048;49.902;22.508;2023-01-28T01:02:47;99095.50;;;-1.78;100.00
37634;BME280;32048;49.902;22.508;2023-01-28T01:05:14;99094.66;;;-1.77;100.00
37634;BME280;32048;49.902;22.508;2023-01-28T01:07:42;99107.59;;;-1.75;100.00
37634;BME280;32048;49.902;22.508;2023-01-28T01:10:12;99105.88;;;-1.75;100.00
37634;BME280;32048;49.902;22.508;2023-01-28T01:12:40;99097.22;;;-1.75;100.00
37634;BME280;32048;49.902;22.508;2023-01-28T01:15:08;99098.09;;;-1.76;100.00
37634;BME280;32048;49.902;22.508;2023-01-28T01:17:40;99102.41;;;-1.78;100.00
37634;BME280;32048;49.902;22.508;2023-01-28T01:20:14;99108.47;;;-1.76;100.00
37634;BME280;32048;49.902;22.508;2023-01-28T01:22:42;99109.31;;;-1.77;100.00
37634;BME280;32048;49.902;22.508;2023-01-28T01:25:09;99110.19;;;-1.77;100.00
37634;BME280;32048;49.902;22.508;2023-01-28T01:27:39;99110.19;;;-1.75;100.00
37634;BME280;32048;49.902;22.508;2023-01-28T01:30:06;99108.47;;;-1.76;100.00
37634;BME280;32048;49.902;22.508;2023-01-28T01:32:34;99105.00;;;-1.77;100.00
37634;BME280;32048;49.902;22.508;2023-01-28T01:35:03;99104.13;;;-1.77;100.00
37634;BME280;32048;49.902;22.508;2023-01-28T01:37:34;99105.00;;;-1.77;100.00
37634;BME280;32048;49.902;22.508;2023-01-28T01:40:02;99106.75;;;-1.74;100.00
37634;BME280;32048;49.902;22.508;2023-01-28T01:42:31;99116.22;;;-1.76;100.00
37634;BME280;32048;49.902;22.508;2023-01-28T01:45:07;99111.91;;;-1.77;100.00
37634;BME280;32048;49.902;22.508;2023-01-28T01:50:23;99113.63;;;-1.78;100.00
37634;BME280;32048;49.902;22.508;2023-01-28T01:52:58;99111.91;;;-1.77;100.00
37634;BME280;32048;49.902;22.508;2023-01-28T01:55:30;99107.56;;;-1.80;100.00
37634;BME280;32048;49.902;22.508;2023-01-28T01:58:06;99104.13;;;-1.76;100.00
37634;BME280;32048;49.902;22.508;2023-01-28T02:00:34;99100.72;;;-1.75;100.00
37634;BME280;32048;49.902;22.508;2023-01-28T02:03:02;99103.31;;;-1.75;100.00
37634;BME280;32048;49.902;22.508;2023-01-28T02:05:29;99105.00;;;-1.74;100.00
37634;BME280;32048;49.902;22.508;2023-01-28T02:07:57;99098.97;;;-1.73;100.00
37634;BME280;32048;49.902;22.508;2023-01-28T02:10:43;99102.41;;;-1.71;100.00
37634;BME280;32048;49.902;22.508;2023-01-28T02:13:12;99099.84;;;-1.72;100.00
37634;BME280;32048;49.902;22.508;2023-01-28T02:15:40;99106.75;;;-1.74;100.00
37634;BME280;32048;49.902;22.508;2023-01-28T02:18:07;99106.72;;;-1.73;100.00
37634;BME280;32048;49.902;22.508;2023-01-28T02:28:33;99109.34;;;-1.71;100.00
37634;BME280;32048;49.902;22.508;2023-01-28T02:31:05;99098.97;;;-1.73;100.00
37634;BME280;32048;49.902;22.508;2023-01-28T02:34:00;99108.47;;;-1.75;100.00
37634;BME280;32048;49.902;22.508;2023-01-28T02:36:53;99113.66;;;-1.75;100.00
37634;BME280;32048;49.902;22.508;2023-01-28T02:39:26;99113.66;;;-1.75;100.00
37634;BME280;32048;49.902;22.508;2023-01-28T02:42:06;99106.72;;;-1.76;100.00
37634;BME280;32048;49.902;22.508;2023-01-28T02:44:35;99113.66;;;-1.75;100.00
37634;BME280;32048;49.902;22.508;2023-01-28T02:47:08;99114.50;;;-1.76;100.00
37634;BME280;32048;49.902;22.508;2023-01-28T02:50:07;99107.59;;;-1.75;100.00
37634;BME280;32048;49.902;22.508;2023-01-28T02:58:26;99104.16;;;-1.74;100.00
37634;BME280;32048;49.902;22.508;2023-01-28T03:01:14;99109.34;;;-1.74;100.00
37634;BME280;32048;49.902;22.508;2023-01-28T03:04:04;99101.56;;;-1.76;100.00
37634;BME280;32048;49.902;22.508;2023-01-28T03:06:39;99105.00;;;-1.74;100.00
37634;BME280;32048;49.902;22.508;2023-01-28T03:09:11;99100.72;;;-1.75;100.00
37634;BME280;32048;49.902;22.508;2023-01-28T03:11:54;99105.00;;;-1.74;100.00
37634;BME280;32048;49.902;22.508;2023-01-28T03:14:42;99109.31;;;-1.73;100.00
37634;BME280;32048;49.902;22.508;2023-01-28T03:17:38;99097.22;;;-1.75;100.00
37634;BME280;32048;49.902;22.508;2023-01-28T03:20:33;99096.38;;;-1.76;100.00
37634;BME280;32048;49.902;22.508;2023-01-28T03:23:22;99096.38;;;-1.79;100.00
37634;BME280;32048;49.902;22.508;2023-01-28T03:26:13;99100.69;;;-1.79;100.00
37634;BME280;32048;49.902;22.508;2023-01-28T03:29:05;99104.13;;;-1.80;100.00
37634;BME280;32048;49.902;22.508;2023-01-28T03:31:54;99107.59;;;-1.81;100.00
37634;BME280;32048;49.902;22.508;2023-01-28T03:34:41;99101.53;;;-1.83;100.00
37634;BME280;32048;49.902;22.508;2023-01-28T03:37:27;99101.50;;;-1.86;100.00
37634;BME280;32048;49.902;22.508;2023-01-28T03:40:00;99099.78;;;-1.84;100.00
37634;BME280;32048;49.902;22.508;2023-01-28T03:42:29;99098.09;;;-1.85;100.00
37634;BME280;32048;49.902;22.508;2023-01-28T03:44:57;99100.66;;;-1.85;100.00
37634;BME280;32048;49.902;22.508;2023-01-28T03:47:29;99106.69;;;-1.85;100.00
37634;BME280;32048;49.902;22.508;2023-01-28T03:49:57;99104.13;;;-1.83;100.00
37634;BME280;32048;49.902;22.508;2023-01-28T03:52:29;99102.41;;;-1.86;100.00
37634;BME280;32048;49.902;22.508;2023-01-28T03:54:57;99101.53;;;-1.85;100.00
37634;BME280;32048;49.902;22.508;2023-01-28T03:57:26;99101.53;;;-1.85;100.00
37634;BME280;32048;49.902;22.508;2023-01-28T03:59:53;99110.16;;;-1.84;100.00
37634;BME280;32048;49.902;22.508;2023-01-28T04:02:21;99111.00;;;-1.84;100.00
37634;BME280;32048;49.902;22.508;2023-01-28T04:04:49;99108.41;;;-1.87;100.00
37634;BME280;32048;49.902;22.508;2023-01-28T04:07:16;99108.44;;;-1.85;100.00
37634;BME280;32048;49.902;22.508;2023-01-28T04:09:43;99107.56;;;-1.88;100.00
37634;BME280;32048;49.902;22.508;2023-01-28T04:12:10;99110.13;;;-1.89;100.00
37634;BME280;32048;49.902;22.508;2023-01-28T04:14:38;99113.56;;;-1.89;100.00
37634;BME280;32048;49.902;22.508;2023-01-28T04:17:07;99115.31;;;-1.89;100.00
37634;BME280;32048;49.902;22.508;2023-01-28T04:19:36;99117.03;;;-1.90;100.00
37634;BME280;32048;49.902;22.508;2023-01-28T04:22:05;99132.59;;;-1.88;100.00
37634;BME280;32048;49.902;22.508;2023-01-28T04:24:33;99126.53;;;-1.89;100.00
37634;BME280;32048;49.902;22.508;2023-01-28T04:27:00;99129.13;;;-1.90;100.00
37634;BME280;32048;49.902;22.508;2023-01-28T04:29:27;99135.16;;;-1.86;100.00
37634;BME280;32048;49.902;22.508;2023-01-28T04:31:54;99136.03;;;-1.88;100.00
37634;BME280;32048;49.902;22.508;2023-01-28T04:34:22;99131.72;;;-1.84;100.00
37634;BME280;32048;49.902;22.508;2023-01-28T04:36:49;99133.47;;;-1.83;100.00
37634;BME280;32048;49.902;22.508;2023-01-28T04:39:16;99130.88;;;-1.83;100.00
37634;BME280;32048;49.902;22.508;2023-01-28T04:41:43;99133.44;;;-1.84;100.00
37634;BME280;32048;49.902;22.508;2023-01-28T04:44:10;99135.16;;;-1.86;100.00
37634;BME280;32048;49.902;22.508;2023-01-28T04:46:37;99133.47;;;-1.86;100.00
37634;BME280;32048;49.902;22.508;2023-01-28T04:49:04;99137.75;;;-1.85;100.00
37634;BME280;32048;49.902;22.508;2023-01-28T04:51:31;99137.75;;;-1.85;100.00
37634;BME280;32048;49.902;22.508;2023-01-28T04:53:59;99126.53;;;-1.87;100.00
37634;BME280;32048;49.902;22.508;2023-01-28T04:56:26;99142.94;;;-1.90;100.00
37634;BME280;32048;49.902;22.508;2023-01-28T04:58:53;99131.72;;;-1.90;100.00
37634;BME280;32048;49.902;22.508;2023-01-28T05:01:20;99136.03;;;-1.89;100.00
37634;BME280;32048;49.902;22.508;2023-01-28T05:03:47;99139.47;;;-1.89;100.00
37634;BME280;32048;49.902;22.508;2023-01-28T05:06:14;99144.63;;;-1.92;100.00
37634;BME280;32048;49.902;22.508;2023-01-28T05:08:41;99136.00;;;-1.92;100.00
37634;BME280;32048;49.902;22.508;2023-01-28T05:11:08;99144.66;;;-1.90;100.00
37634;BME280;32048;49.902;22.508;2023-01-28T05:13:35;99141.19;;;-1.94;100.00
37634;BME280;32048;49.902;22.508;2023-01-28T05:16:02;99139.44;;;-1.93;100.00
37634;BME280;32048;49.902;22.508;2023-01-28T05:18:30;99137.72;;;-1.94;100.00
37634;BME280;32048;49.902;22.508;2023-01-28T05:20:57;99142.91;;;-1.94;100.00
37634;BME280;32048;49.902;22.508;2023-01-28T05:23:24;99147.22;;;-1.93;100.00
37634;BME280;32048;49.902;22.508;2023-01-28T05:25:51;99142.03;;;-1.93;100.00
37634;BME280;32048;49.902;22.508;2023-01-28T05:28:18;99147.22;;;-1.93;100.00
37634;BME280;32048;49.902;22.508;2023-01-28T05:30:45;99152.38;;;-1.93;100.00
37634;BME280;32048;49.902;22.508;2023-01-28T05:33:12;99148.09;;;-1.93;100.00
37634;BME280;32048;49.902;22.508;2023-01-28T05:35:41;99142.03;;;-1.93;100.00
37634;BME280;32048;49.902;22.508;2023-01-28T05:38:08;99149.78;;;-1.93;100.00
37634;BME280;32048;49.902;22.508;2023-01-28T05:40:35;99152.41;;;-1.95;100.00
37634;BME280;32048;49.902;22.508;2023-01-28T05:43:02;99151.53;;;-1.92;100.00
37634;BME280;32048;49.902;22.508;2023-01-28T05:45:29;99148.97;;;-1.92;100.00
37634;BME280;32048;49.902;22.508;2023-01-28T05:47:56;99155.00;;;-1.92;100.00
37634;BME280;32048;49.902;22.508;2023-01-28T05:50:23;99155.84;;;-1.91;100.00
37634;BME280;32048;49.902;22.508;2023-01-28T05:52:51;99150.66;;;-1.94;100.00
37634;BME280;32048;49.902;22.508;2023-01-28T05:55:18;99158.44;;;-1.94;100.00
37634;BME280;32048;49.902;22.508;2023-01-28T05:57:47;99161.00;;;-1.96;100.00
37634;BME280;32048;49.902;22.508;2023-01-28T06:00:14;99159.28;;;-1.97;100.00
37634;BME280;32048;49.902;22.508;2023-01-28T06:02:42;99162.72;;;-2.01;100.00
37634;BME280;32048;49.902;22.508;2023-01-28T06:05:09;99162.69;;;-2.02;100.00
37634;BME280;32048;49.902;22.508;2023-01-28T06:07:37;99164.44;;;-2.01;100.00
37634;BME280;32048;49.902;22.508;2023-01-28T06:10:04;99169.59;;;-2.00;100.00
37634;BME280;32048;49.902;22.508;2023-01-28T06:12:31;99171.34;;;-2.00;100.00
37634;BME280;32048;49.902;22.508;2023-01-28T06:14:58;99173.94;;;-1.99;100.00
37634;BME280;32048;49.902;22.508;2023-01-28T06:17:25;99174.78;;;-2.00;100.00
37634;BME280;32048;49.902;22.508;2023-01-28T06:19:52;99179.97;;;-2.00;100.00
37634;BME280;32048;49.902;22.508;2023-01-28T06:22:20;99173.03;;;-2.02;100.00
37634;BME280;32048;49.902;22.508;2023-01-28T06:24:47;99177.38;;;-2.01;100.00
37634;BME280;32048;49.902;22.508;2023-01-28T06:27:14;99185.16;;;-2.01;100.00
37634;BME280;32048;49.902;22.508;2023-01-28T06:29:41;99190.31;;;-1.98;100.00
37634;BME280;32048;49.902;22.508;2023-01-28T06:32:08;99189.47;;;-1.97;100.00
37634;BME280;32048;49.902;22.508;2023-01-28T06:34:35;99189.50;;;-1.94;100.00
37634;BME280;32048;49.902;22.508;2023-01-28T06:37:02;99186.91;;;-1.94;100.00
37634;BME280;32048;49.902;22.508;2023-01-28T06:39:30;99192.94;;;-1.91;100.00
37634;BME280;32048;49.902;22.508;2023-01-28T06:42:00;99191.22;;;-1.92;100.00
37634;BME280;32048;49.902;22.508;2023-01-28T06:44:27;99190.34;;;-1.91;100.00
37634;BME280;32048;49.902;22.508;2023-01-28T06:46:54;99193.84;;;-1.90;100.00
37634;BME280;32048;49.902;22.508;2023-01-28T06:49:21;99194.69;;;-1.86;100.00
37634;BME280;32048;49.902;22.508;2023-01-28T06:51:48;99202.47;;;-1.85;100.00
37634;BME280;32048;49.902;22.508;2023-01-28T06:54:15;99197.31;;;-1.80;100.00
37634;BME280;32048;49.902;22.508;2023-01-28T06:56:43;99205.97;;;-1.81;100.00
37634;BME280;32048;49.902;22.508;2023-01-28T06:59:10;99208.53;;;-1.80;100.00
37634;BME280;32048;49.902;22.508;2023-01-28T07:01:37;99212.88;;;-1.76;100.00
37634;BME280;32048;49.902;22.508;2023-01-28T07:04:04;99217.22;;;-1.75;100.00
37634;BME280;32048;49.902;22.508;2023-01-28T07:06:31;99224.13;;;-1.72;100.00
37634;BME280;32048;49.902;22.508;2023-01-28T07:08:58;99224.97;;;-1.69;100.00
37634;BME280;32048;49.902;22.508;2023-01-28T07:11:26;99232.78;;;-1.64;100.00
37634;BME280;32048;49.902;22.508;2023-01-28T07:13:52;99238.81;;;-1.65;100.00
37634;BME280;32048;49.902;22.508;2023-01-28T07:16:20;99237.97;;;-1.65;100.00
37634;BME280;32048;49.902;22.508;2023-01-28T07:18:47;99240.53;;;-1.64;100.00
37634;BME280;32048;49.902;22.508;2023-01-28T07:21:14;99240.56;;;-1.61;100.00
37634;BME280;32048;49.902;22.508;2023-01-28T07:23:41;99238.84;;;-1.59;100.00
37634;BME280;32048;49.902;22.508;2023-01-28T07:26:08;99247.50;;;-1.55;100.00
37634;BME280;32048;49.902;22.508;2023-01-28T07:28:35;99246.66;;;-1.54;100.00
37634;BME280;32048;49.902;22.508;2023-01-28T07:31:02;99244.94;;;-1.52;100.00
37634;BME280;32048;49.902;22.508;2023-01-28T07:33:29;99250.13;;;-1.48;100.00
37634;BME280;32048;49.902;22.508;2023-01-28T07:35:56;99252.75;;;-1.43;100.00
37634;BME280;32048;49.902;22.508;2023-01-28T07:38:23;99250.13;;;-1.41;100.00
37634;BME280;32048;49.902;22.508;2023-01-28T07:40:50;99251.03;;;-1.36;100.00
37634;BME280;32048;49.902;22.508;2023-01-28T07:43:17;99250.19;;;-1.32;100.00
37634;BME280;32048;49.902;22.508;2023-01-28T07:45:45;99250.19;;;-1.29;100.00
37634;BME280;32048;49.902;22.508;2023-01-28T07:48:14;99247.63;;;-1.28;100.00
37634;BME280;32048;49.902;22.508;2023-01-28T07:50:41;99251.94;;;-1.23;100.00
37634;BME280;32048;49.902;22.508;2023-01-28T07:53:10;99248.50;;;-1.18;100.00
37634;BME280;32048;49.902;22.508;2023-01-28T07:55:37;99245.91;;;-1.21;100.00
37634;BME280;32048;49.902;22.508;2023-01-28T07:58:06;99254.53;;;-1.19;100.00
37634;BME280;32048;49.902;22.508;2023-01-28T08:00:35;99258.84;;;-1.19;100.00
37634;BME280;32048;49.902;22.508;2023-01-28T08:03:05;99251.09;;;-1.21;100.00
37634;BME280;32048;49.902;22.508;2023-01-28T08:05:45;99264.94;;;-1.13;100.00
37634;BME280;32048;49.902;22.508;2023-01-28T08:08:13;99261.47;;;-1.06;100.00
37634;BME280;32048;49.902;22.508;2023-01-28T08:10:41;99266.69;;;-1.02;100.00
37634;BME280;32048;49.902;22.508;2023-01-28T08:13:10;99259.78;;;-1.05;100.00
37634;BME280;32048;49.902;22.508;2023-01-28T08:15:37;99252.88;;;-1.01;100.00
37634;BME280;32048;49.902;22.508;2023-01-28T08:18:06;99252.88;;;-1.01;100.00
37634;BME280;32048;49.902;22.508;2023-01-28T08:20:34;99258.06;;;-0.95;100.00
37634;BME280;32048;49.902;22.508;2023-01-28T08:23:11;99261.53;;;-0.89;100.00
37634;BME280;32048;49.902;22.508;2023-01-28T08:25:39;99252.94;;;-0.78;100.00
37634;BME280;32048;49.902;22.508;2023-01-28T08:28:06;99265.03;;;-0.70;100.00
37634;BME280;32048;49.902;22.508;2023-01-28T08:30:34;99262.44;;;-0.64;100.00
37634;BME280;32048;49.902;22.508;2023-01-28T08:33:05;99262.47;;;-0.57;100.00
37634;BME280;32048;49.902;22.508;2023-01-28T08:35:32;99270.25;;;-0.57;100.00
37634;BME280;32048;49.902;22.508;2023-01-28T08:38:01;99268.50;;;-0.52;100.00
37634;BME280;32048;49.902;22.508;2023-01-28T08:40:29;99262.47;;;-0.47;100.00
37634;BME280;32048;49.902;22.508;2023-01-28T08:42:57;99256.41;;;-0.35;100.00
37634;BME280;32048;49.902;22.508;2023-01-28T08:45:26;99267.66;;;-0.30;100.00
37634;BME280;32048;49.902;22.508;2023-01-28T08:47:54;99268.53;;;-0.35;100.00
37634;BME280;32048;49.902;22.508;2023-01-28T08:50:24;99271.09;;;-0.29;100.00
37634;BME280;32048;49.902;22.508;2023-01-28T08:52:58;99272.00;;;-0.29;100.00
37634;BME280;32048;49.902;22.508;2023-01-28T08:55:26;99276.31;;;-0.25;100.00
37634;BME280;32048;49.902;22.508;2023-01-28T08:57:54;99269.38;;;-0.23;100.00
37634;BME280;32048;49.902;22.508;2023-01-28T09:00:24;99265.91;;;-0.18;100.00
37634;BME280;32048;49.902;22.508;2023-01-28T09:02:52;99269.38;;;-0.12;100.00
37634;BME280;32048;49.902;22.508;2023-01-28T09:05:20;99268.50;;;-0.09;100.00
37634;BME280;32048;49.902;22.508;2023-01-28T09:07:48;99271.97;;;-0.04;100.00
37634;BME280;32048;49.902;22.508;2023-01-28T09:10:16;99275.44;;;0.03;100.00
37634;BME280;32048;49.902;22.508;2023-01-28T09:12:46;99281.47;;;0.08;100.00
37634;BME280;32048;49.902;22.508;2023-01-28T09:15:14;99282.31;;;0.07;100.00
37634;BME280;32048;49.902;22.508;2023-01-28T09:17:40;99279.75;;;0.04;100.00
37634;BME280;32048;49.902;22.508;2023-01-28T09:20:08;99286.66;;;0.02;100.00
37634;BME280;32048;49.902;22.508;2023-01-28T09:22:35;99280.63;;;-0.04;100.00
37634;BME280;32048;49.902;22.508;2023-01-28T09:25:03;99282.38;;;-0.09;100.00
37634;BME280;32048;49.902;22.508;2023-01-28T09:27:30;99273.72;;;-0.11;100.00
37634;BME280;32048;49.902;22.508;2023-01-28T09:29:58;99278.88;;;-0.09;100.00
37634;BME280;32048;49.902;22.508;2023-01-28T09:32:25;99284.97;;;-0.04;100.00
37634;BME280;32048;49.902;22.508;2023-01-28T09:34:52;99279.75;;;0.05;100.00
37634;BME280;32048;49.902;22.508;2023-01-28T09:37:19;99282.31;;;0.13;100.00
37634;BME280;32048;49.902;22.508;2023-01-28T09:39:46;99275.38;;;0.18;100.00
37634;BME280;32048;49.902;22.508;2023-01-28T09:42:23;99277.13;;;0.17;100.00
37634;BME280;32048;49.902;22.508;2023-01-28T09:45:14;99284.03;;;0.20;100.00
37634;BME280;32048;49.902;22.508;2023-01-28T09:47:46;99275.38;;;0.29;100.00
37634;BME280;32048;49.902;22.508;2023-01-28T09:52:55;99278.00;;;0.27;100.00
37634;BME280;32048;49.902;22.508;2023-01-28T09:55:37;99282.31;;;0.24;100.00
37634;BME280;32048;49.902;22.508;2023-01-28T09:58:11;99278.84;;;0.26;100.00
37634;BME280;32048;49.902;22.508;2023-01-28T10:04:12;99277.13;;;0.28;100.00
37634;BME280;32048;49.902;22.508;2023-01-28T10:09:39;99268.41;;;0.40;100.00
37634;BME280;32048;49.902;22.508;2023-01-28T10:20:14;99277.09;;;0.34;100.00
37634;BME280;32048;49.902;22.508;2023-01-28T10:22:52;99277.09;;;0.27;100.00
37634;BME280;32048;49.902;22.508;2023-01-28T10:25:24;99271.03;;;0.31;100.00
37634;BME280;32048;49.902;22.508;2023-01-28T10:27:52;99262.38;;;0.39;100.00
37634;BME280;32048;49.902;22.508;2023-01-28T10:30:23;99264.06;;;0.50;100.00
37634;BME280;32048;49.902;22.508;2023-01-28T10:33:15;99263.19;;;0.58;100.00
37634;BME280;32048;49.902;22.508;2023-01-28T10:35:43;99259.66;;;0.70;100.00
37634;BME280;32048;49.902;22.508;2023-01-28T10:38:16;99263.97;;;0.79;100.00
37634;BME280;32048;49.902;22.508;2023-01-28T10:40:45;99259.56;;;0.92;100.00
37634;BME280;32048;49.902;22.508;2023-01-28T10:43:22;99260.41;;;0.97;100.00
37634;BME280;32048;49.902;22.508;2023-01-28T10:46:09;99262.97;;;1.00;100.00
37634;BME280;32048;49.902;22.508;2023-01-28T10:48:45;99257.72;;;1.08;100.00
37634;BME280;32048;49.902;22.508;2023-01-28T10:51:13;99254.28;;;1.07;100.00
37634;BME280;32048;49.902;22.508;2023-01-28T10:53:43;99258.63;;;1.07;100.00
37634;BME280;32048;49.902;22.508;2023-01-28T10:56:25;99246.53;;;0.99;100.00
37634;BME280;32048;49.902;22.508;2023-01-28T10:59:00;99251.72;;;0.96;100.00
37634;BME280;32048;49.902;22.508;2023-01-28T11:01:42;99252.59;;;1.00;100.00
37634;BME280;32048;49.902;22.508;2023-01-28T11:04:17;99256.91;;;1.04;100.00
37634;BME280;32048;49.902;22.508;2023-01-28T11:09:28;99247.41;;;0.97;100.00
37634;BME280;32048;49.902;22.508;2023-01-28T11:12:11;99250.91;;;0.91;100.00
37634;BME280;32048;49.902;22.508;2023-01-28T11:14:49;99244.84;;;0.86;100.00
37634;BME280;32048;49.902;22.508;2023-01-28T11:17:18;99244.84;;;0.86;100.00
37634;BME280;32048;49.902;22.508;2023-01-28T11:19:45;99252.69;;;0.81;100.00
37634;BME280;32048;49.902;22.508;2023-01-28T11:24:49;99239.63;;;0.91;100.00
37634;BME280;32048;49.902;22.508;2023-01-28T11:27:17;99233.53;;;0.99;100.00
37634;BME280;32048;49.902;22.508;2023-01-28T11:29:56;99232.59;;;1.08;100.00
37634;BME280;32048;49.902;22.508;2023-01-28T11:32:25;99223.88;;;1.14;100.00
37634;BME280;32048;49.902;22.508;2023-01-28T11:34:54;99230.81;;;1.16;100.00
37634;BME280;32048;49.902;22.508;2023-01-28T11:37:27;99230.81;;;1.19;100.00
37634;BME280;32048;49.902;22.508;2023-01-28T11:42:29;99221.25;;;1.20;99.18
37634;BME280;32048;49.902;22.508;2023-01-28T11:44:57;99222.97;;;1.24;98.64
37634;BME280;32048;49.902;22.508;2023-01-28T12:07:05;99216.94;;;1.19;94.35
37634;BME280;32048;49.902;22.508;2023-01-28T12:09:55;99213.53;;;1.11;95.23
37634;BME280;32048;49.902;22.508;2023-01-28T12:29:29;99235.16;;;1.14;95.42
37634;BME280;32048;49.902;22.508;2023-01-28T12:34:56;99242.03;;;1.26;95.13
37634;BME280;32048;49.902;22.508;2023-01-28T12:45:38;99236.91;;;1.14;94.08
37634;BME280;32048;49.902;22.508;2023-01-28T12:48:18;99238.69;;;1.06;93.65
37634;BME280;32048;49.902;22.508;2023-01-28T12:50:51;99237.84;;;1.03;94.37
37634;BME280;32048;49.902;22.508;2023-01-28T12:53:24;99238.69;;;1.06;94.17
37634;BME280;32048;49.902;22.508;2023-01-28T12:58:56;99233.53;;;0.99;94.23
37634;BME280;32048;49.902;22.508;2023-01-28T13:01:36;99250.88;;;0.97;94.25
37634;BME280;32048;49.902;22.508;2023-01-28T13:06:46;99251.75;;;0.95;93.83
37634;BME280;32048;49.902;22.508;2023-01-28T13:09:18;99250.88;;;0.90;93.79
37634;BME280;32048;49.902;22.508;2023-01-28T13:11:49;99250.94;;;0.82;93.51
37634;BME280;32048;49.902;22.508;2023-01-28T13:14:17;99246.66;;;0.75;94.21
37634;BME280;32048;49.902;22.508;2023-01-28T13:16:45;99251.84;;;0.76;94.54
37634;BME280;32048;49.902;22.508;2023-01-28T13:21:46;99257.03;;;0.78;94.80
37634;BME280;32048;49.902;22.508;2023-01-28T13:26:54;99260.47;;;0.78;94.18
37634;BME280;32048;49.902;22.508;2023-01-28T13:31:54;99264.00;;;0.74;94.87
37634;BME280;32048;49.902;22.508;2023-01-28T13:34:42;99257.06;;;0.69;94.94
37634;BME280;32048;49.902;22.508;2023-01-28T13:37:27;99258.81;;;0.67;95.52
37634;BME280;32048;49.902;22.508;2023-01-28T13:42:40;99257.03;;;0.72;96.17
37634;BME280;32048;49.902;22.508;2023-01-28T13:47:47;99269.19;;;0.73;95.93
37634;BME280;32048;49.902;22.508;2023-01-28T13:50:22;99269.22;;;0.70;96.23
37634;BME280;32048;49.902;22.508;2023-01-28T13:55:44;99273.56;;;0.61;95.79
37634;BME280;32048;49.902;22.508;2023-01-28T14:01:18;99273.59;;;0.48;96.14
37634;BME280;32048;49.902;22.508;2023-01-28T14:18:01;99286.66;;;0.28;96.94
37634;BME280;32048;49.902;22.508;2023-01-28T14:20:54;99287.50;;;0.24;97.08
37634;BME280;32048;49.902;22.508;2023-01-28T14:23:22;99288.38;;;0.26;97.65
37634;BME280;32048;49.902;22.508;2023-01-28T14:28:38;99286.66;;;0.18;97.58
37634;BME280;32048;49.902;22.508;2023-01-28T14:31:15;99280.59;;;0.13;97.77
37634;BME280;32048;49.902;22.508;2023-01-28T14:33:44;99290.16;;;0.11;98.14
37634;BME280;32048;49.902;22.508;2023-01-28T14:36:11;99288.41;;;0.07;98.77
37634;BME280;32048;49.902;22.508;2023-01-28T14:38:40;99284.94;;;0.05;98.87
37634;BME280;32048;49.902;22.508;2023-01-28T14:41:24;99297.06;;;0.03;99.00
37634;BME280;32048;49.902;22.508;2023-01-28T14:43:54;99290.13;;;-0.01;99.14
37634;BME280;32048;49.902;22.508;2023-01-28T14:46:36;99287.56;;;-0.04;99.19
37634;BME280;32048;49.902;22.508;2023-01-28T14:52:42;99283.22;;;-0.13;99.73
37634;BME280;32048;49.902;22.508;2023-01-28T14:58:03;99279.78;;;-0.24;100.00
37634;BME280;32048;49.902;22.508;2023-01-28T15:00:33;99281.50;;;-0.26;100.00
37634;BME280;32048;49.902;22.508;2023-01-28T15:03:10;99287.56;;;-0.29;100.00
37634;BME280;32048;49.902;22.508;2023-01-28T15:06:04;99292.72;;;-0.32;100.00
37634;BME280;32048;49.902;22.508;2023-01-28T15:08:31;99292.75;;;-0.35;100.00
37634;BME280;32048;49.902;22.508;2023-01-28T15:11:00;99296.19;;;-0.39;100.00
37634;BME280;32048;49.902;22.508;2023-01-28T15:13:31;99301.38;;;-0.40;100.00
37634;BME280;32048;49.902;22.508;2023-01-28T15:15:59;99297.03;;;-0.43;100.00
37634;BME280;32048;49.902;22.508;2023-01-28T15:18:40;99296.19;;;-0.45;100.00